Airfield :
LOGIN :

Register | Disclaimer

   EN    FR    IT 

 










Legend :    VFR   Marginal VFR   IFR   Intensive IFR   Very Intensive IFR
Visi :
Ceiling :
>= 8 km
>= 3000ft
5 to 8 km
1000 to 3000 ft
1500m to 5 km
500 to 1000 ft
800 to 1500m
200 to 500 ft
< 800m
< 200 ft
Symbols :   Thunderstorms  Fog  Heavy snow  Heavy precipitations  Wind > 20 kt
SIGMETs :     Misc.  Thunderstorms  Icing  Turbulence  Mountain Waves  Volcanic Ashes







- Airport Elevation : 826 ft
- IATA code : CWC


UKLN - Chernivtsi International

CURRENT METAR :
  • 230230Z 00000MPS 4100 1400NW R33/P2000N BR NSC 04/03 Q1020 TEMPO 0500 FG VV002

EXPIRED METARs :
  • 230222Z 00000MPS 7000 NSC 04/03 Q1020 NOSIG
  • 230210Z 00000MPS 3600 BR NSC 04/03 Q1020 NOSIG
  • 230200Z VRB01MPS 6000 2600NW BR NSC 04/03 Q1020 NOSIG

TAF TAF UKLN
Valid from the 23 at 03:00 until the 23 at 12:00 UTC


230211Z 2303/2312 VRB01MPS 2100 BR SCT040 TN04/2303Z TX11/2312Z
TEMPO 2303/2307 0500 FG VV002
BECMG 2307/2309 30005MPS 9999 NSW BKN033CB
No reported NOTAMs for that airfield.



MET'MAP, your aeronautical weather chart ! - Copyright ORBIFLY December 2007 - Disclaimer

ORBIFLY MET'MAP TEAM :

Programming & Development : Alexandra Zaïnal
Concept & Development : Baudouin d'Aumeries
Co-Development & Prog : Marc-Olivier Méhu
Technical & hardware support : Manuel Goepfert

Contact : metmap@orbifly.com




SOURCES & CREDITS :

   NOAA